sensor_id;sensor_type;location;lat;lon;timestamp;temperature;humidity
14531;DHT22;7352;50.866;4.366;2023-03-01T00:00:16;2.50;94.60
14531;DHT22;7352;50.866;4.366;2023-03-01T00:02:46;2.50;94.40
14531;DHT22;7352;50.866;4.366;2023-03-01T00:05:14;2.60;94.20
14531;DHT22;7352;50.866;4.366;2023-03-01T00:07:42;2.60;94.10
14531;DHT22;7352;50.866;4.366;2023-03-01T00:10:10;2.50;94.30
14531;DHT22;7352;50.866;4.366;2023-03-01T00:12:37;2.50;94.60
14531;DHT22;7352;50.866;4.366;2023-03-01T00:15:05;2.50;94.60
14531;DHT22;7352;50.866;4.366;2023-03-01T00:17:33;2.60;94.70
14531;DHT22;7352;50.866;4.366;2023-03-01T00:20:01;2.60;94.70
14531;DHT22;7352;50.866;4.366;2023-03-01T00:22:28;2.60;94.50
14531;DHT22;7352;50.866;4.366;2023-03-01T00:24:55;2.40;95.10
14531;DHT22;7352;50.866;4.366;2023-03-01T00:27:26;2.50;95.10
14531;DHT22;7352;50.866;4.366;2023-03-01T00:29:53;2.30;95.70
14531;DHT22;7352;50.866;4.366;2023-03-01T00:32:21;2.30;95.80
14531;DHT22;7352;50.866;4.366;2023-03-01T00:34:49;2.40;95.70
14531;DHT22;7352;50.866;4.366;2023-03-01T00:37:30;2.50;95.30
14531;DHT22;7352;50.866;4.366;2023-03-01T00:39:58;2.60;95.40
14531;DHT22;7352;50.866;4.366;2023-03-01T00:42:29;2.50;95.10
14531;DHT22;7352;50.866;4.366;2023-03-01T00:44:58;2.40;95.60
14531;DHT22;7352;50.866;4.366;2023-03-01T00:47:29;2.40;95.70
14531;DHT22;7352;50.866;4.366;2023-03-01T00:49:56;2.40;95.70
14531;DHT22;7352;50.866;4.366;2023-03-01T00:52:23;2.30;95.90
14531;DHT22;7352;50.866;4.366;2023-03-01T00:54:57;2.20;96.10
14531;DHT22;7352;50.866;4.366;2023-03-01T00:57:25;2.30;95.80
14531;DHT22;7352;50.866;4.366;2023-03-01T01:00:06;2.20;96.20
14531;DHT22;7352;50.866;4.366;2023-03-01T01:02:37;2.30;96.40
14531;DHT22;7352;50.866;4.366;2023-03-01T01:05:09;2.20;96.60
14531;DHT22;7352;50.866;4.366;2023-03-01T01:07:40;2.20;97.30
14531;DHT22;7352;50.866;4.366;2023-03-01T01:10:14;2.30;97.20
14531;DHT22;7352;50.866;4.366;2023-03-01T01:12:43;2.30;97.00
14531;DHT22;7352;50.866;4.366;2023-03-01T01:15:13;2.20;97.20
14531;DHT22;7352;50.866;4.366;2023-03-01T01:17:50;2.20;97.80
14531;DHT22;7352;50.866;4.366;2023-03-01T01:20:22;2.20;97.70
14531;DHT22;7352;50.866;4.366;2023-03-01T01:22:50;2.20;97.70
14531;DHT22;7352;50.866;4.366;2023-03-01T01:25:24;2.10;97.80
14531;DHT22;7352;50.866;4.366;2023-03-01T01:27:51;2.10;97.80
14531;DHT22;7352;50.866;4.366;2023-03-01T01:30:24;2.00;98.50
14531;DHT22;7352;50.866;4.366;2023-03-01T01:32:55;1.90;98.70
14531;DHT22;7352;50.866;4.366;2023-03-01T01:35:27;2.10;98.20
14531;DHT22;7352;50.866;4.366;2023-03-01T01:37:54;2.10;98.40
14531;DHT22;7352;50.866;4.366;2023-03-01T01:40:23;2.00;98.60
14531;DHT22;7352;50.866;4.366;2023-03-01T01:42:50;1.90;99.10
14531;DHT22;7352;50.866;4.366;2023-03-01T01:45:31;1.90;99.00
14531;DHT22;7352;50.866;4.366;2023-03-01T01:48:02;1.90;99.40
14531;DHT22;7352;50.866;4.366;2023-03-01T01:50:32;1.90;99.30
14531;DHT22;7352;50.866;4.366;2023-03-01T01:53:06;1.70;99.60
14531;DHT22;7352;50.866;4.366;2023-03-01T01:55:40;1.90;99.60
14531;DHT22;7352;50.866;4.366;2023-03-01T01:58:10;1.80;99.90
14531;DHT22;7352;50.866;4.366;2023-03-01T02:00:40;1.70;99.90
14531;DHT22;7352;50.866;4.366;2023-03-01T02:03:10;1.80;99.90
14531;DHT22;7352;50.866;4.366;2023-03-01T02:05:42;1.80;99.90
14531;DHT22;7352;50.866;4.366;2023-03-01T02:08:13;1.70;99.90
14531;DHT22;7352;50.866;4.366;2023-03-01T02:10:43;1.80;99.90
14531;DHT22;7352;50.866;4.366;2023-03-01T02:13:11;1.80;99.80
14531;DHT22;7352;50.866;4.366;2023-03-01T02:15:40;1.80;99.90
14531;DHT22;7352;50.866;4.366;2023-03-01T02:18:10;1.80;99.80
14531;DHT22;7352;50.866;4.366;2023-03-01T02:20:48;1.90;99.60
14531;DHT22;7352;50.866;4.366;2023-03-01T02:23:18;1.80;99.80
14531;DHT22;7352;50.866;4.366;2023-03-01T02:25:51;2.00;98.70
14531;DHT22;7352;50.866;4.366;2023-03-01T02:28:28;2.00;98.50
14531;DHT22;7352;50.866;4.366;2023-03-01T02:30:56;2.00;99.00
14531;DHT22;7352;50.866;4.366;2023-03-01T02:33:43;2.00;98.90
14531;DHT22;7352;50.866;4.366;2023-03-01T02:36:14;1.70;99.50
14531;DHT22;7352;50.866;4.366;2023-03-01T02:38:42;1.60;99.90
14531;DHT22;7352;50.866;4.366;2023-03-01T02:41:13;1.60;99.90
14531;DHT22;7352;50.866;4.366;2023-03-01T02:43:43;1.60;99.90
14531;DHT22;7352;50.866;4.366;2023-03-01T02:46:14;1.60;99.90
14531;DHT22;7352;50.866;4.366;2023-03-01T02:48:43;1.60;99.90
14531;DHT22;7352;50.866;4.366;2023-03-01T02:51:21;1.60;99.90
14531;DHT22;7352;50.866;4.366;2023-03-01T02:53:56;1.60;99.90
14531;DHT22;7352;50.866;4.366;2023-03-01T02:56:25;1.60;99.90
14531;DHT22;7352;50.866;4.366;2023-03-01T02:58:54;1.60;99.90
14531;DHT22;7352;50.866;4.366;2023-03-01T03:01:27;1.60;99.90
14531;DHT22;7352;50.866;4.366;2023-03-01T03:04:06;1.50;99.90
14531;DHT22;7352;50.866;4.366;2023-03-01T03:06:33;1.60;99.90
14531;DHT22;7352;50.866;4.366;2023-03-01T03:09:02;1.40;99.90
14531;DHT22;7352;50.866;4.366;2023-03-01T03:11:29;1.40;99.90
14531;DHT22;7352;50.866;4.366;2023-03-01T03:13:59;1.30;99.90
14531;DHT22;7352;50.866;4.366;2023-03-01T03:16:28;1.40;99.90
14531;DHT22;7352;50.866;4.366;2023-03-01T03:18:55;1.30;99.90
14531;DHT22;7352;50.866;4.366;2023-03-01T03:21:30;1.50;99.90
14531;DHT22;7352;50.866;4.366;2023-03-01T03:24:00;1.30;99.90
14531;DHT22;7352;50.866;4.366;2023-03-01T03:26:27;1.50;99.90
14531;DHT22;7352;50.866;4.366;2023-03-01T03:28:54;1.50;99.90
14531;DHT22;7352;50.866;4.366;2023-03-01T03:31:24;1.40;99.90
14531;DHT22;7352;50.866;4.366;2023-03-01T03:33:52;1.30;99.90
14531;DHT22;7352;50.866;4.366;2023-03-01T03:36:22;1.40;99.90
14531;DHT22;7352;50.866;4.366;2023-03-01T03:38:50;1.30;99.90
14531;DHT22;7352;50.866;4.366;2023-03-01T03:41:17;1.40;99.90
14531;DHT22;7352;50.866;4.366;2023-03-01T03:43:44;1.20;99.90
14531;DHT22;7352;50.866;4.366;2023-03-01T03:46:12;1.40;99.90
14531;DHT22;7352;50.866;4.366;2023-03-01T03:48:43;1.30;99.90
14531;DHT22;7352;50.866;4.366;2023-03-01T03:51:11;1.20;99.90
14531;DHT22;7352;50.866;4.366;2023-03-01T03:53:38;1.20;99.90
14531;DHT22;7352;50.866;4.366;2023-03-01T03:56:06;1.10;99.90
14531;DHT22;7352;50.866;4.366;2023-03-01T03:58:33;1.20;99.90
14531;DHT22;7352;50.866;4.366;2023-03-01T04:01:00;1.20;99.90
14531;DHT22;7352;50.866;4.366;2023-03-01T04:03:30;1.00;99.90
14531;DHT22;7352;50.866;4.366;2023-03-01T04:05:59;1.00;99.90
14531;DHT22;7352;50.866;4.366;2023-03-01T04:08:27;1.00;99.90
14531;DHT22;7352;50.866;4.366;2023-03-01T04:10:58;1.00;99.90
14531;DHT22;7352;50.866;4.366;2023-03-01T04:13:26;1.00;99.90
14531;DHT22;7352;50.866;4.366;2023-03-01T04:15:54;1.00;99.90
14531;DHT22;7352;50.866;4.366;2023-03-01T04:18:22;1.00;99.90
14531;DHT22;7352;50.866;4.366;2023-03-01T04:20:50;0.90;99.90
14531;DHT22;7352;50.866;4.366;2023-03-01T04:23:22;0.90;99.90
14531;DHT22;7352;50.866;4.366;2023-03-01T04:25:51;0.90;99.90
14531;DHT22;7352;50.866;4.366;2023-03-01T04:28:21;1.00;99.90
14531;DHT22;7352;50.866;4.366;2023-03-01T04:30:50;1.00;99.90
14531;DHT22;7352;50.866;4.366;2023-03-01T04:33:17;1.00;99.90
14531;DHT22;7352;50.866;4.366;2023-03-01T04:35:45;1.00;99.90
14531;DHT22;7352;50.866;4.366;2023-03-01T04:38:15;1.10;99.90
14531;DHT22;7352;50.866;4.366;2023-03-01T04:40:43;0.90;99.90
14531;DHT22;7352;50.866;4.366;2023-03-01T04:43:11;0.90;99.90
14531;DHT22;7352;50.866;4.366;2023-03-01T04:45:44;0.90;99.90
14531;DHT22;7352;50.866;4.366;2023-03-01T04:48:11;1.00;99.90
14531;DHT22;7352;50.866;4.366;2023-03-01T04:50:38;0.90;99.90
14531;DHT22;7352;50.866;4.366;2023-03-01T04:53:05;0.80;99.90
14531;DHT22;7352;50.866;4.366;2023-03-01T04:55:33;0.90;99.90
14531;DHT22;7352;50.866;4.366;2023-03-01T04:58:03;1.00;99.90
14531;DHT22;7352;50.866;4.366;2023-03-01T05:00:30;0.90;99.90
14531;DHT22;7352;50.866;4.366;2023-03-01T05:03:00;1.00;99.90
14531;DHT22;7352;50.866;4.366;2023-03-01T05:05:30;1.00;99.90
14531;DHT22;7352;50.866;4.366;2023-03-01T05:08:00;1.00;99.90
14531;DHT22;7352;50.866;4.366;2023-03-01T05:10:30;0.90;99.90
14531;DHT22;7352;50.866;4.366;2023-03-01T05:12:58;1.00;99.90
14531;DHT22;7352;50.866;4.366;2023-03-01T05:15:27;0.80;99.90
14531;DHT22;7352;50.866;4.366;2023-03-01T05:17:56;0.80;99.90
14531;DHT22;7352;50.866;4.366;2023-03-01T05:20:26;0.80;99.90
14531;DHT22;7352;50.866;4.366;2023-03-01T05:22:55;0.80;99.90
14531;DHT22;7352;50.866;4.366;2023-03-01T05:25:24;0.80;99.90
14531;DHT22;7352;50.866;4.366;2023-03-01T05:27:52;0.80;99.90
14531;DHT22;7352;50.866;4.366;2023-03-01T05:30:19;0.80;99.90
14531;DHT22;7352;50.866;4.366;2023-03-01T05:32:49;0.90;99.90
14531;DHT22;7352;50.866;4.366;2023-03-01T05:35:21;0.80;99.90
14531;DHT22;7352;50.866;4.366;2023-03-01T05:37:49;0.80;99.90
14531;DHT22;7352;50.866;4.366;2023-03-01T05:40:18;1.00;99.90
14531;DHT22;7352;50.866;4.366;2023-03-01T05:42:47;0.80;99.90
14531;DHT22;7352;50.866;4.366;2023-03-01T05:45:15;0.60;99.90
14531;DHT22;7352;50.866;4.366;2023-03-01T05:47:45;0.60;99.90
14531;DHT22;7352;50.866;4.366;2023-03-01T05:50:15;0.70;99.90
14531;DHT22;7352;50.866;4.366;2023-03-01T05:52:45;0.50;99.90
14531;DHT22;7352;50.866;4.366;2023-03-01T05:55:14;0.50;99.90
14531;DHT22;7352;50.866;4.366;2023-03-01T05:57:41;0.50;99.90
14531;DHT22;7352;50.866;4.366;2023-03-01T06:00:10;0.60;99.90
14531;DHT22;7352;50.866;4.366;2023-03-01T06:02:37;0.50;99.90
14531;DHT22;7352;50.866;4.366;2023-03-01T06:05:05;0.70;99.90
14531;DHT22;7352;50.866;4.366;2023-03-01T06:07:34;0.60;99.90
14531;DHT22;7352;50.866;4.366;2023-03-01T06:10:01;0.60;99.90
14531;DHT22;7352;50.866;4.366;2023-03-01T06:12:30;0.50;99.90
14531;DHT22;7352;50.866;4.366;2023-03-01T06:14:58;0.50;99.90
14531;DHT22;7352;50.866;4.366;2023-03-01T06:17:25;0.50;99.90
14531;DHT22;7352;50.866;4.366;2023-03-01T06:19:52;0.50;99.90
14531;DHT22;7352;50.866;4.366;2023-03-01T06:22:19;0.50;99.90
14531;DHT22;7352;50.866;4.366;2023-03-01T06:24:47;0.70;99.90
14531;DHT22;7352;50.866;4.366;2023-03-01T06:27:14;0.70;99.90
14531;DHT22;7352;50.866;4.366;2023-03-01T06:29:41;0.60;99.90
14531;DHT22;7352;50.866;4.366;2023-03-01T06:32:09;0.60;99.90
14531;DHT22;7352;50.866;4.366;2023-03-01T06:34:36;0.70;99.90
14531;DHT22;7352;50.866;4.366;2023-03-01T06:37:03;0.70;99.90
14531;DHT22;7352;50.866;4.366;2023-03-01T06:39:32;0.60;99.90
14531;DHT22;7352;50.866;4.366;2023-03-01T06:42:00;0.60;99.90
14531;DHT22;7352;50.866;4.366;2023-03-01T06:44:28;0.70;99.90
14531;DHT22;7352;50.866;4.366;2023-03-01T06:47:07;0.80;99.90
14531;DHT22;7352;50.866;4.366;2023-03-01T06:49:35;0.90;99.90
14531;DHT22;7352;50.866;4.366;2023-03-01T06:52:03;0.70;99.90
14531;DHT22;7352;50.866;4.366;2023-03-01T06:54:32;0.80;99.90
14531;DHT22;7352;50.866;4.366;2023-03-01T06:57:03;0.70;99.90
14531;DHT22;7352;50.866;4.366;2023-03-01T06:59:32;0.80;99.90
14531;DHT22;7352;50.866;4.366;2023-03-01T07:01:59;0.70;99.90
14531;DHT22;7352;50.866;4.366;2023-03-01T07:04:28;0.70;99.90
14531;DHT22;7352;50.866;4.366;2023-03-01T07:06:56;0.80;99.90
14531;DHT22;7352;50.866;4.366;2023-03-01T07:09:23;0.80;99.90
14531;DHT22;7352;50.866;4.366;2023-03-01T07:11:50;0.80;99.90
14531;DHT22;7352;50.866;4.366;2023-03-01T07:14:19;0.70;99.90
14531;DHT22;7352;50.866;4.366;2023-03-01T07:16:46;0.70;99.90
14531;DHT22;7352;50.866;4.366;2023-03-01T07:19:13;0.80;99.90
14531;DHT22;7352;50.866;4.366;2023-03-01T07:21:40;0.90;99.90
14531;DHT22;7352;50.866;4.366;2023-03-01T07:24:07;0.80;99.90
14531;DHT22;7352;50.866;4.366;2023-03-01T07:26:36;0.80;99.90
14531;DHT22;7352;50.866;4.366;2023-03-01T07:29:06;0.90;99.90
14531;DHT22;7352;50.866;4.366;2023-03-01T07:31:45;0.90;99.90
14531;DHT22;7352;50.866;4.366;2023-03-01T07:34:17;0.80;99.90
14531;DHT22;7352;50.866;4.366;2023-03-01T07:36:44;1.10;99.90
14531;DHT22;7352;50.866;4.366;2023-03-01T07:39:13;1.20;99.90
14531;DHT22;7352;50.866;4.366;2023-03-01T07:41:41;1.50;99.90
14531;DHT22;7352;50.866;4.366;2023-03-01T07:44:10;1.70;99.90
14531;DHT22;7352;50.866;4.366;2023-03-01T07:46:37;1.50;99.90
14531;DHT22;7352;50.866;4.366;2023-03-01T07:49:05;1.40;99.90
14531;DHT22;7352;50.866;4.366;2023-03-01T07:51:32;1.30;99.90
14531;DHT22;7352;50.866;4.366;2023-03-01T07:53:59;1.10;99.90
14531;DHT22;7352;50.866;4.366;2023-03-01T07:56:26;1.30;99.90
14531;DHT22;7352;50.866;4.366;2023-03-01T07:59:00;1.40;99.90
14531;DHT22;7352;50.866;4.366;2023-03-01T08:01:36;1.40;99.90
14531;DHT22;7352;50.866;4.366;2023-03-01T08:04:09;1.40;99.90
14531;DHT22;7352;50.866;4.366;2023-03-01T08:06:39;1.40;99.90
14531;DHT22;7352;50.866;4.366;2023-03-01T08:09:06;1.40;99.90
14531;DHT22;7352;50.866;4.366;2023-03-01T08:11:34;1.40;99.90
14531;DHT22;7352;50.866;4.366;2023-03-01T08:14:03;1.50;99.90
14531;DHT22;7352;50.866;4.366;2023-03-01T08:16:34;1.50;99.90
14531;DHT22;7352;50.866;4.366;2023-03-01T08:19:04;1.40;99.90
14531;DHT22;7352;50.866;4.366;2023-03-01T08:21:37;1.60;99.90
14531;DHT22;7352;50.866;4.366;2023-03-01T08:24:06;1.80;99.90
14531;DHT22;7352;50.866;4.366;2023-03-01T08:26:36;1.70;99.90
14531;DHT22;7352;50.866;4.366;2023-03-01T08:29:03;1.70;99.90
14531;DHT22;7352;50.866;4.366;2023-03-01T08:31:32;1.90;99.90
14531;DHT22;7352;50.866;4.366;2023-03-01T08:34:04;1.90;99.90
14531;DHT22;7352;50.866;4.366;2023-03-01T08:36:35;1.90;99.90
14531;DHT22;7352;50.866;4.366;2023-03-01T08:39:04;2.10;99.90
14531;DHT22;7352;50.866;4.366;2023-03-01T08:41:31;2.10;99.90
14531;DHT22;7352;50.866;4.366;2023-03-01T08:43:59;2.20;99.90
14531;DHT22;7352;50.866;4.366;2023-03-01T08:46:26;2.20;99.90
14531;DHT22;7352;50.866;4.366;2023-03-01T08:48:53;2.20;99.90
14531;DHT22;7352;50.866;4.366;2023-03-01T08:51:21;2.30;99.90
14531;DHT22;7352;50.866;4.366;2023-03-01T08:53:50;2.30;99.90
14531;DHT22;7352;50.866;4.366;2023-03-01T08:56:18;2.30;99.90
14531;DHT22;7352;50.866;4.366;2023-03-01T08:58:47;2.40;99.90
14531;DHT22;7352;50.866;4.366;2023-03-01T09:01:16;2.60;99.90
14531;DHT22;7352;50.866;4.366;2023-03-01T09:03:43;2.70;99.90
14531;DHT22;7352;50.866;4.366;2023-03-01T09:06:12;2.80;99.90
14531;DHT22;7352;50.866;4.366;2023-03-01T09:08:41;2.70;99.90
14531;DHT22;7352;50.866;4.366;2023-03-01T09:11:11;2.70;99.90
14531;DHT22;7352;50.866;4.366;2023-03-01T09:13:38;2.80;99.90
14531;DHT22;7352;50.866;4.366;2023-03-01T09:16:07;3.00;99.90
14531;DHT22;7352;50.866;4.366;2023-03-01T09:18:35;3.00;99.80
14531;DHT22;7352;50.866;4.366;2023-03-01T09:21:03;3.00;99.80
14531;DHT22;7352;50.866;4.366;2023-03-01T09:23:33;2.90;99.90
14531;DHT22;7352;50.866;4.366;2023-03-01T09:26:01;3.00;99.90
14531;DHT22;7352;50.866;4.366;2023-03-01T09:28:30;3.00;99.90
14531;DHT22;7352;50.866;4.366;2023-03-01T09:30:58;3.00;99.80
14531;DHT22;7352;50.866;4.366;2023-03-01T09:33:26;3.20;99.30
14531;DHT22;7352;50.866;4.366;2023-03-01T09:35:56;3.20;98.50
14531;DHT22;7352;50.866;4.366;2023-03-01T09:38:25;3.20;98.60
14531;DHT22;7352;50.866;4.366;2023-03-01T09:40:52;3.10;98.40
14531;DHT22;7352;50.866;4.366;2023-03-01T09:43:25;3.20;98.30
14531;DHT22;7352;50.866;4.366;2023-03-01T09:45:59;3.20;98.60
14531;DHT22;7352;50.866;4.366;2023-03-01T09:48:36;3.40;98.00
14531;DHT22;7352;50.866;4.366;2023-03-01T09:51:08;3.50;97.80
14531;DHT22;7352;50.866;4.366;2023-03-01T09:53:39;3.60;97.60
14531;DHT22;7352;50.866;4.366;2023-03-01T09:56:12;3.60;97.00
14531;DHT22;7352;50.866;4.366;2023-03-01T09:58:49;3.70;96.40
14531;DHT22;7352;50.866;4.366;2023-03-01T10:01:30;3.70;96.80
14531;DHT22;7352;50.866;4.366;2023-03-01T10:04:24;3.80;96.50
14531;DHT22;7352;50.866;4.366;2023-03-01T10:07:02;3.90;96.40
14531;DHT22;7352;50.866;4.366;2023-03-01T10:09:34;3.80;96.30
14531;DHT22;7352;50.866;4.366;2023-03-01T10:12:09;3.90;96.30
14531;DHT22;7352;50.866;4.366;2023-03-01T10:14:40;4.00;95.60
14531;DHT22;7352;50.866;4.366;2023-03-01T10:17:26;3.90;95.70
14531;DHT22;7352;50.866;4.366;2023-03-01T10:19:55;4.10;95.20
14531;DHT22;7352;50.866;4.366;2023-03-01T10:22:28;4.10;94.80
14531;DHT22;7352;50.866;4.366;2023-03-01T10:24:59;4.10;94.70
14531;DHT22;7352;50.866;4.366;2023-03-01T10:27:34;4.30;94.70
14531;DHT22;7352;50.866;4.366;2023-03-01T10:30:13;4.40;94.10
14531;DHT22;7352;50.866;4.366;2023-03-01T10:32:51;4.60;94.10
14531;DHT22;7352;50.866;4.366;2023-03-01T10:35:28;4.60;93.90
14531;DHT22;7352;50.866;4.366;2023-03-01T10:38:04;4.60;93.70
14531;DHT22;7352;50.866;4.366;2023-03-01T10:40:32;4.60;93.70
14531;DHT22;7352;50.866;4.366;2023-03-01T10:43:03;4.70;93.50
14531;DHT22;7352;50.866;4.366;2023-03-01T10:45:34;4.80;93.40
14531;DHT22;7352;50.866;4.366;2023-03-01T10:48:15;4.90;92.50
14531;DHT22;7352;50.866;4.366;2023-03-01T10:50:47;5.10;91.80
14531;DHT22;7352;50.866;4.366;2023-03-01T10:53:26;5.10;91.60
14531;DHT22;7352;50.866;4.366;2023-03-01T10:56:03;5.10;91.80
14531;DHT22;7352;50.866;4.366;2023-03-01T10:58:32;5.00;92.00
14531;DHT22;7352;50.866;4.366;2023-03-01T11:01:02;5.00;91.90
14531;DHT22;7352;50.866;4.366;2023-03-01T11:03:33;5.10;91.50
14531;DHT22;7352;50.866;4.366;2023-03-01T11:06:05;5.10;91.30
14531;DHT22;7352;50.866;4.366;2023-03-01T11:08:39;5.20;91.10
14531;DHT22;7352;50.866;4.366;2023-03-01T11:11:18;5.30;91.30
14531;DHT22;7352;50.866;4.366;2023-03-01T11:13:54;5.30;91.20
14531;DHT22;7352;50.866;4.366;2023-03-01T11:16:32;5.50;91.00
14531;DHT22;7352;50.866;4.366;2023-03-01T11:19:14;5.60;91.10
14531;DHT22;7352;50.866;4.366;2023-03-01T11:21:45;5.60;90.90
14531;DHT22;7352;50.866;4.366;2023-03-01T11:24:15;5.50;90.90
14531;DHT22;7352;50.866;4.366;2023-03-01T11:26:47;5.50;90.90
14531;DHT22;7352;50.866;4.366;2023-03-01T11:29:26;5.50;90.90
14531;DHT22;7352;50.866;4.366;2023-03-01T11:31:57;5.70;90.70
14531;DHT22;7352;50.866;4.366;2023-03-01T11:34:36;5.70;90.20
14531;DHT22;7352;50.866;4.366;2023-03-01T11:37:26;5.70;90.10
14531;DHT22;7352;50.866;4.366;2023-03-01T11:40:10;5.80;90.60
14531;DHT22;7352;50.866;4.366;2023-03-01T11:42:50;5.80;89.90
14531;DHT22;7352;50.866;4.366;2023-03-01T11:45:19;5.90;89.60
14531;DHT22;7352;50.866;4.366;2023-03-01T11:48:11;5.90;88.90
14531;DHT22;7352;50.866;4.366;2023-03-01T11:50:45;5.90;88.60
14531;DHT22;7352;50.866;4.366;2023-03-01T11:53:29;6.20;87.30
14531;DHT22;7352;50.866;4.366;2023-03-01T11:56:05;6.00;87.80
14531;DHT22;7352;50.866;4.366;2023-03-01T12:01:45;6.20;88.80
14531;DHT22;7352;50.866;4.366;2023-03-01T12:07:39;6.30;87.60
14531;DHT22;7352;50.866;4.366;2023-03-01T12:10:22;6.30;87.50
14531;DHT22;7352;50.866;4.366;2023-03-01T12:13:04;6.40;87.60
14531;DHT22;7352;50.866;4.366;2023-03-01T12:15:42;6.50;87.10
14531;DHT22;7352;50.866;4.366;2023-03-01T12:21:16;6.50;84.60
14531;DHT22;7352;50.866;4.366;2023-03-01T12:24:04;6.50;84.30
14531;DHT22;7352;50.866;4.366;2023-03-01T12:26:36;6.60;84.30
14531;DHT22;7352;50.866;4.366;2023-03-01T12:29:25;6.60;84.10
14531;DHT22;7352;50.866;4.366;2023-03-01T12:32:25;6.60;83.20
14531;DHT22;7352;50.866;4.366;2023-03-01T12:35:11;6.60;84.30
14531;DHT22;7352;50.866;4.366;2023-03-01T12:37:56;6.60;83.20
14531;DHT22;7352;50.866;4.366;2023-03-01T12:40:43;6.70;84.40
14531;DHT22;7352;50.866;4.366;2023-03-01T12:43:22;6.70;83.20
14531;DHT22;7352;50.866;4.366;2023-03-01T12:46:15;6.70;82.60
14531;DHT22;7352;50.866;4.366;2023-03-01T12:48:54;6.80;83.00
14531;DHT22;7352;50.866;4.366;2023-03-01T12:51:30;7.10;81.90
14531;DHT22;7352;50.866;4.366;2023-03-01T12:54:00;7.10;81.80
14531;DHT22;7352;50.866;4.366;2023-03-01T12:56:32;7.10;81.90
14531;DHT22;7352;50.866;4.366;2023-03-01T12:59:10;7.20;81.00
14531;DHT22;7352;50.866;4.366;2023-03-01T13:01:42;7.10;80.60
14531;DHT22;7352;50.866;4.366;2023-03-01T13:04:33;7.00;80.50
14531;DHT22;7352;50.866;4.366;2023-03-01T13:07:19;7.10;80.60
14531;DHT22;7352;50.866;4.366;2023-03-01T13:09:57;7.20;80.60
14531;DHT22;7352;50.866;4.366;2023-03-01T13:12:46;7.10;79.20
14531;DHT22;7352;50.866;4.366;2023-03-01T13:15:33;7.00;79.40
14531;DHT22;7352;50.866;4.366;2023-03-01T13:18:04;7.00;79.20
14531;DHT22;7352;50.866;4.366;2023-03-01T13:21:05;7.00;78.90
14531;DHT22;7352;50.866;4.366;2023-03-01T13:23:37;7.10;79.10
14531;DHT22;7352;50.866;4.366;2023-03-01T13:26:14;7.20;78.60
14531;DHT22;7352;50.866;4.366;2023-03-01T13:28:51;7.30;78.90
14531;DHT22;7352;50.866;4.366;2023-03-01T13:34:43;7.30;78.00
14531;DHT22;7352;50.866;4.366;2023-03-01T13:37:23;7.50;79.00
14531;DHT22;7352;50.866;4.366;2023-03-01T13:39:51;7.60;78.60
14531;DHT22;7352;50.866;4.366;2023-03-01T13:42:37;7.50;78.80
14531;DHT22;7352;50.866;4.366;2023-03-01T13:45:16;7.60;77.80
14531;DHT22;7352;50.866;4.366;2023-03-01T13:47:45;7.60;76.80
14531;DHT22;7352;50.866;4.366;2023-03-01T13:50:19;7.50;77.20
14531;DHT22;7352;50.866;4.366;2023-03-01T13:52:53;7.50;76.90
14531;DHT22;7352;50.866;4.366;2023-03-01T13:55:26;7.60;76.80
14531;DHT22;7352;50.866;4.366;2023-03-01T13:57:56;7.60;77.20
14531;DHT22;7352;50.866;4.366;2023-03-01T14:00:35;7.70;76.90
14531;DHT22;7352;50.866;4.366;2023-03-01T14:03:11;7.70;76.90
14531;DHT22;7352;50.866;4.366;2023-03-01T14:06:00;7.70;76.40
14531;DHT22;7352;50.866;4.366;2023-03-01T14:08:34;7.70;76.30
14531;DHT22;7352;50.866;4.366;2023-03-01T14:11:22;7.80;75.60
14531;DHT22;7352;50.866;4.366;2023-03-01T14:14:37;7.90;76.00
14531;DHT22;7352;50.866;4.366;2023-03-01T14:17:34;8.00;76.40
14531;DHT22;7352;50.866;4.366;2023-03-01T14:20:12;8.20;75.60
14531;DHT22;7352;50.866;4.366;2023-03-01T14:22:44;8.20;75.60
14531;DHT22;7352;50.866;4.366;2023-03-01T14:25:38;8.20;76.00
14531;DHT22;7352;50.866;4.366;2023-03-01T14:28:17;8.30;76.30
14531;DHT22;7352;50.866;4.366;2023-03-01T14:30:57;8.40;75.00
14531;DHT22;7352;50.866;4.366;2023-03-01T14:33:32;8.40;74.50
14531;DHT22;7352;50.866;4.366;2023-03-01T14:36:05;8.40;74.60
14531;DHT22;7352;50.866;4.366;2023-03-01T14:38:36;8.30;74.10
14531;DHT22;7352;50.866;4.366;2023-03-01T14:41:08;8.40;74.30
14531;DHT22;7352;50.866;4.366;2023-03-01T14:43:37;8.50;75.00
14531;DHT22;7352;50.866;4.366;2023-03-01T14:46:18;8.40;75.10
14531;DHT22;7352;50.866;4.366;2023-03-01T14:48:47;8.50;76.00
14531;DHT22;7352;50.866;4.366;2023-03-01T14:51:14;8.40;76.00
14531;DHT22;7352;50.866;4.366;2023-03-01T14:53:42;8.50;76.10
14531;DHT22;7352;50.866;4.366;2023-03-01T14:56:15;8.70;75.60
14531;DHT22;7352;50.866;4.366;2023-03-01T14:58:44;8.70;74.70
14531;DHT22;7352;50.866;4.366;2023-03-01T15:01:16;8.70;74.90
14531;DHT22;7352;50.866;4.366;2023-03-01T15:03:45;8.80;75.60
14531;DHT22;7352;50.866;4.366;2023-03-01T15:06:15;8.90;74.80
14531;DHT22;7352;50.866;4.366;2023-03-01T15:08:46;9.00;74.10
14531;DHT22;7352;50.866;4.366;2023-03-01T15:11:29;8.90;74.50
14531;DHT22;7352;50.866;4.366;2023-03-01T15:13:56;9.20;74.60
14531;DHT22;7352;50.866;4.366;2023-03-01T15:16:26;9.40;73.60
14531;DHT22;7352;50.866;4.366;2023-03-01T15:18:58;9.40;73.60
14531;DHT22;7352;50.866;4.366;2023-03-01T15:21:31;9.60;74.00
14531;DHT22;7352;50.866;4.366;2023-03-01T15:24:03;9.90;72.00
14531;DHT22;7352;50.866;4.366;2023-03-01T15:26:37;9.90;71.00
14531;DHT22;7352;50.866;4.366;2023-03-01T15:29:16;9.90;70.80
14531;DHT22;7352;50.866;4.366;2023-03-01T15:31:54;9.90;70.00
14531;DHT22;7352;50.866;4.366;2023-03-01T15:34:23;9.90;71.00
14531;DHT22;7352;50.866;4.366;2023-03-01T15:36:52;10.10;69.90
14531;DHT22;7352;50.866;4.366;2023-03-01T15:39:38;10.10;69.50
14531;DHT22;7352;50.866;4.366;2023-03-01T15:42:09;10.50;69.90
14531;DHT22;7352;50.866;4.366;2023-03-01T15:44:38;10.60;69.20
14531;DHT22;7352;50.866;4.366;2023-03-01T15:47:23;10.90;69.20
14531;DHT22;7352;50.866;4.366;2023-03-01T15:49:52;10.90;67.80
14531;DHT22;7352;50.866;4.366;2023-03-01T15:52:23;10.90;67.00
14531;DHT22;7352;50.866;4.366;2023-03-01T15:54:55;10.90;66.60
14531;DHT22;7352;50.866;4.366;2023-03-01T15:57:23;10.90;66.80
14531;DHT22;7352;50.866;4.366;2023-03-01T15:59:50;11.10;66.00
14531;DHT22;7352;50.866;4.366;2023-03-01T16:02:17;11.00;65.60
14531;DHT22;7352;50.866;4.366;2023-03-01T16:04:46;10.50;66.30
14531;DHT22;7352;50.866;4.366;2023-03-01T16:07:15;10.10;68.10
14531;DHT22;7352;50.866;4.366;2023-03-01T16:09:44;9.70;69.40
14531;DHT22;7352;50.866;4.366;2023-03-01T16:12:14;9.60;69.70
14531;DHT22;7352;50.866;4.366;2023-03-01T16:14:44;9.30;70.20
14531;DHT22;7352;50.866;4.366;2023-03-01T16:17:10;9.00;70.50
14531;DHT22;7352;50.866;4.366;2023-03-01T16:19:38;9.00;70.60
14531;DHT22;7352;50.866;4.366;2023-03-01T16:22:06;8.90;71.10
14531;DHT22;7352;50.866;4.366;2023-03-01T16:24:33;8.80;71.80
14531;DHT22;7352;50.866;4.366;2023-03-01T16:27:01;8.70;72.10
14531;DHT22;7352;50.866;4.366;2023-03-01T16:29:29;8.60;73.00
14531;DHT22;7352;50.866;4.366;2023-03-01T16:31:59;8.50;74.90
14531;DHT22;7352;50.866;4.366;2023-03-01T16:34:26;8.40;73.60
14531;DHT22;7352;50.866;4.366;2023-03-01T16:36:53;8.40;73.90
14531;DHT22;7352;50.866;4.366;2023-03-01T16:39:20;8.30;74.20
14531;DHT22;7352;50.866;4.366;2023-03-01T16:41:47;8.00;74.50
14531;DHT22;7352;50.866;4.366;2023-03-01T16:44:15;8.10;74.90